Time;durP1;ratioP1;P1;durP2;ratioP2;P2;SDS_P1;SDS_P2;PMS_P1;PMS_P2;Temp;Humidity;BMP_temperature;BMP_pressure;BME280_temperature;BME280_humidity;BME280_pressure;Samples;Min_cycle;Max_cycle;Signal;HPM_P1;HPM_P2
2023/09/11 00:04:22;;;;;;;9.82;5.53;;;;;;;;;;10405459;28;20037;-47
2023/09/11 00:09:23;;;;;;;6.72;5.15;;;;;;;;;;10406145;28;20025;-48
2023/09/11 00:14:23;;;;;;;8.75;5.28;;;;;;;;;;10405446;28;20033;-47
2023/09/11 00:19:24;;;;;;;6.50;5.13;;;;;;;;;;10411345;28;20180;-47
2023/09/11 00:24:24;;;;;;;12.32;5.68;;;;;;;;;;10411152;28;20037;-47
2023/09/11 00:29:25;;;;;;;9.07;5.38;;;;;;;;;;10411605;28;20062;-48
2023/09/11 00:34:26;;;;;;;7.90;5.38;;;;;;;;;;10413168;28;20025;-48
2023/09/11 00:39:26;;;;;;;8.07;5.32;;;;;;;;;;10410900;28;20025;-48
2023/09/11 00:44:28;;;;;;;7.95;5.32;;;;;;;;;;10412433;28;20046;-48
2023/09/11 00:49:30;;;;;;;9.38;5.10;;;;;;;;;;10412054;28;20543;-48
2023/09/11 00:54:31;;;;;;;8.77;4.88;;;;;;;;;;10410523;28;20052;-47
2023/09/11 00:59:32;;;;;;;11.18;5.07;;;;;;;;;;10411443;28;20500;-51
2023/09/11 01:04:32;;;;;;;8.35;5.63;;;;;;;;;;10409760;28;20029;-48
2023/09/11 01:09:34;;;;;;;9.93;5.95;;;;;;;;;;10411890;28;20370;-48
2023/09/11 01:14:37;;;;;;;11.02;5.38;;;;;;;;;;10412033;28;20103;-47
2023/09/11 01:20:08;;;;;;;8.52;5.35;;;;;;;;;;10411655;28;20489;-47
2023/09/11 01:25:37;;;;;;;8.90;5.70;;;;;;;;;;10400013;28;20112;-48
2023/09/11 01:30:39;;;;;;;8.52;5.72;;;;;;;;;;10408795;28;20013;-48
2023/09/11 01:35:39;;;;;;;6.70;5.60;;;;;;;;;;10409977;28;20445;-48
2023/09/11 01:40:43;;;;;;;6.00;4.80;;;;;;;;;;10410164;28;20029;-51
2023/09/11 01:45:44;;;;;;;7.35;5.03;;;;;;;;;;10408724;28;20057;-49
2023/09/11 01:50:45;;;;;;;10.52;5.38;;;;;;;;;;10408183;28;20133;-51
2023/09/11 01:55:46;;;;;;;7.30;5.68;;;;;;;;;;10408993;28;20416;-50
2023/09/11 02:00:47;;;;;;;15.52;5.20;;;;;;;;;;10409130;28;20029;-55
2023/09/11 02:05:47;;;;;;;6.95;5.32;;;;;;;;;;10407884;28;20025;-54
2023/09/11 02:10:48;;;;;;;9.00;5.75;;;;;;;;;;10408320;28;20028;-50
2023/09/11 02:15:48;;;;;;;10.38;4.93;;;;;;;;;;10407339;28;20103;-50
2023/09/11 02:20:49;;;;;;;10.07;5.65;;;;;;;;;;10406669;28;20279;-49
2023/09/11 02:25:51;;;;;;;7.75;5.47;;;;;;;;;;10407150;28;20033;-47
2023/09/11 02:30:51;;;;;;;10.57;6.22;;;;;;;;;;10407328;28;20025;-48
2023/09/11 02:35:54;;;;;;;10.65;6.10;;;;;;;;;;10407639;28;20037;-48
2023/09/11 02:40:55;;;;;;;18.00;5.80;;;;;;;;;;10406829;28;20075;-48
2023/09/11 02:45:55;;;;;;;9.20;5.93;;;;;;;;;;10407385;28;20466;-52
2023/09/11 02:50:56;;;;;;;7.75;5.47;;;;;;;;;;10406874;28;20037;-48
2023/09/11 02:55:56;;;;;;;9.75;5.40;;;;;;;;;;10406757;28;20033;-47
2023/09/11 03:01:05;;;;;;;15.07;5.60;;;;;;;;;;10406257;28;20022;-47
2023/09/11 03:06:05;;;;;;;14.57;5.45;;;;;;;;;;10407202;28;20028;-47
2023/09/11 03:11:09;;;;;;;7.45;5.15;;;;;;;;;;10405980;28;20461;-48
2023/09/11 03:16:15;;;;;;;10.77;5.72;;;;;;;;;;10399108;28;20107;-47
2023/09/11 03:21:15;;;;;;;10.52;5.60;;;;;;;;;;10394513;28;20494;-47
2023/09/11 03:26:17;;;;;;;10.73;5.55;;;;;;;;;;10407550;28;20032;-47
2023/09/11 03:31:17;;;;;;;7.82;5.63;;;;;;;;;;10406381;28;20018;-47
2023/09/11 03:36:18;;;;;;;14.85;6.43;;;;;;;;;;10405690;28;20473;-47
2023/09/11 03:41:19;;;;;;;8.52;5.22;;;;;;;;;;10405603;28;20033;-47
2023/09/11 03:46:20;;;;;;;10.85;6.38;;;;;;;;;;10404693;28;20056;-48
2023/09/11 03:51:20;;;;;;;6.05;4.95;;;;;;;;;;10408027;28;20139;-47
2023/09/11 03:56:21;;;;;;;10.40;6.10;;;;;;;;;;10413566;28;20041;-48
2023/09/11 04:01:21;;;;;;;7.45;5.53;;;;;;;;;;10413413;28;20029;-48
2023/09/11 04:06:22;;;;;;;6.43;5.63;;;;;;;;;;10413323;28;20032;-50
2023/09/11 04:11:23;;;;;;;9.32;5.65;;;;;;;;;;10413634;28;20030;-47
2023/09/11 04:16:23;;;;;;;11.80;5.75;;;;;;;;;;10413243;28;20053;-47
2023/09/11 04:21:24;;;;;;;8.55;5.43;;;;;;;;;;10413305;28;20026;-49
2023/09/11 04:26:24;;;;;;;12.13;5.00;;;;;;;;;;10413791;28;20118;-47
2023/09/11 04:31:25;;;;;;;18.55;5.30;;;;;;;;;;10412009;28;20022;-47
2023/09/11 04:36:26;;;;;;;7.20;4.95;;;;;;;;;;10412195;28;20025;-48
2023/09/11 04:41:26;;;;;;;7.55;5.22;;;;;;;;;;10412266;28;20033;-48
2023/09/11 04:46:27;;;;;;;7.80;4.68;;;;;;;;;;10411681;28;20496;-47
2023/09/11 04:51:28;;;;;;;10.05;5.60;;;;;;;;;;10408488;28;20028;-48
2023/09/11 04:56:29;;;;;;;8.57;5.28;;;;;;;;;;10403810;28;20045;-51
2023/09/11 05:01:29;;;;;;;11.38;5.70;;;;;;;;;;10403941;28;20040;-56
2023/09/11 05:06:30;;;;;;;8.15;4.78;;;;;;;;;;10408791;28;20044;-53
2023/09/11 05:11:30;;;;;;;6.93;4.75;;;;;;;;;;10410119;28;20060;-54
2023/09/11 05:16:31;;;;;;;8.68;4.63;;;;;;;;;;10403536;28;20029;-48
2023/09/11 05:21:32;;;;;;;6.72;4.63;;;;;;;;;;10408538;28;20029;-49
2023/09/11 05:26:33;;;;;;;9.95;4.32;;;;;;;;;;10406103;28;20044;-50
2023/09/11 05:31:33;;;;;;;9.00;5.10;;;;;;;;;;10407311;28;20025;-58
2023/09/11 05:36:34;;;;;;;7.25;5.00;;;;;;;;;;10407351;28;20033;-48
2023/09/11 05:41:35;;;;;;;6.97;4.43;;;;;;;;;;10394809;28;20145;-47
2023/09/11 05:48:05;;;;;;;9.20;4.65;;;;;;;;;;10481738;28;20626;-59
2023/09/11 05:53:06;;;;;;;9.52;5.18;;;;;;;;;;10420456;28;20065;-53
2023/09/11 05:58:07;;;;;;;9.05;4.80;;;;;;;;;;10423756;28;20025;-50
2023/09/11 06:03:08;;;;;;;12.13;4.32;;;;;;;;;;10415423;28;20033;-48
2023/09/11 06:08:09;;;;;;;8.95;5.20;;;;;;;;;;10423512;28;20033;-49
2023/09/11 06:13:09;;;;;;;12.57;4.53;;;;;;;;;;10432894;28;20030;-51
2023/09/11 06:18:10;;;;;;;32.75;5.05;;;;;;;;;;10419193;28;20369;-49
2023/09/11 06:23:12;;;;;;;13.32;5.78;;;;;;;;;;10417523;28;20029;-48
2023/09/11 06:28:13;;;;;;;11.18;4.90;;;;;;;;;;10438799;28;20396;-52
2023/09/11 06:33:13;;;;;;;9.43;4.68;;;;;;;;;;10415480;28;20033;-48
2023/09/11 06:38:14;;;;;;;13.48;4.80;;;;;;;;;;10418187;28;20461;-51
2023/09/11 06:43:15;;;;;;;9.55;5.28;;;;;;;;;;10432251;28;20506;-54
2023/09/11 06:48:16;;;;;;;11.27;5.30;;;;;;;;;;10412490;28;20056;-51
2023/09/11 06:53:16;;;;;;;11.85;5.32;;;;;;;;;;10426315;28;20022;-54
2023/09/11 06:58:17;;;;;;;9.50;5.07;;;;;;;;;;10380641;28;20021;-49
2023/09/11 07:03:19;;;;;;;10.38;4.93;;;;;;;;;;10373709;28;20482;-59
2023/09/11 07:08:19;;;;;;;8.70;4.75;;;;;;;;;;10396896;28;20156;-60
2023/09/11 07:13:20;;;;;;;9.00;4.70;;;;;;;;;;10397578;28;20030;-57
2023/09/11 07:18:20;;;;;;;7.10;4.70;;;;;;;;;;10373872;28;20029;-49
2023/09/11 07:23:23;;;;;;;12.32;4.90;;;;;;;;;;10397868;28;20032;-48
2023/09/11 07:28:27;;;;;;;9.73;4.30;;;;;;;;;;10385498;28;20025;-52
2023/09/11 07:33:29;;;;;;;7.90;4.47;;;;;;;;;;10372457;28;20241;-51
2023/09/11 07:38:29;;;;;;;7.22;4.63;;;;;;;;;;10371489;28;20026;-49
2023/09/11 07:43:30;;;;;;;7.38;4.50;;;;;;;;;;10379668;28;20436;-54
2023/09/11 07:48:30;;;;;;;6.75;4.68;;;;;;;;;;10408125;28;20382;-60
2023/09/11 07:53:31;;;;;;;5.15;4.60;;;;;;;;;;10391324;28;20389;-49
2023/09/11 07:58:31;;;;;;;6.35;4.30;;;;;;;;;;10372618;28;20433;-55
2023/09/11 08:03:33;;;;;;;6.50;4.70;;;;;;;;;;10373669;28;20079;-49
2023/09/11 08:08:34;;;;;;;6.47;4.80;;;;;;;;;;10381156;28;20092;-56
2023/09/11 08:13:34;;;;;;;6.05;4.93;;;;;;;;;;10383848;28;20029;-49
2023/09/11 08:18:35;;;;;;;12.85;4.43;;;;;;;;;;10371101;28;20053;-52
2023/09/11 08:23:36;;;;;;;6.82;5.00;;;;;;;;;;10395444;28;20029;-50
2023/09/11 08:28:37;;;;;;;7.50;4.85;;;;;;;;;;10406076;28;20169;-51
2023/09/11 08:33:38;;;;;;;9.98;4.85;;;;;;;;;;10379607;28;20384;-49
2023/09/11 08:38:40;;;;;;;8.82;4.55;;;;;;;;;;10372501;28;20032;-48
2023/09/11 08:43:41;;;;;;;4.95;4.40;;;;;;;;;;10393180;28;20038;-55
2023/09/11 08:48:47;;;;;;;6.60;4.63;;;;;;;;;;10389630;28;20450;-50
2023/09/11 08:53:51;;;;;;;6.88;4.93;;;;;;;;;;10375406;28;20232;-48
2023/09/11 08:58:52;;;;;;;7.43;4.43;;;;;;;;;;10400634;28;20025;-48
2023/09/11 09:03:55;;;;;;;9.82;4.50;;;;;;;;;;10373449;28;20061;-49
2023/09/11 09:08:56;;;;;;;8.38;4.57;;;;;;;;;;10381056;28;20029;-52
2023/09/11 09:13:57;;;;;;;5.38;4.18;;;;;;;;;;10389713;28;20033;-49
2023/09/11 09:18:58;;;;;;;8.77;4.30;;;;;;;;;;10380754;28;20033;-50
2023/09/11 09:24:09;;;;;;;6.97;4.65;;;;;;;;;;10381120;28;20029;-51
2023/09/11 09:29:16;;;;;;;4.95;4.18;;;;;;;;;;10394703;28;20366;-53
2023/09/11 09:34:17;;;;;;;7.35;4.78;;;;;;;;;;10367468;28;20535;-48
2023/09/11 09:39:18;;;;;;;8.43;5.00;;;;;;;;;;10378823;28;20025;-48
2023/09/11 09:44:34;;;;;;;6.55;4.65;;;;;;;;;;10389832;28;20053;-49
2023/09/11 09:49:47;;;;;;;6.70;5.00;;;;;;;;;;10382683;28;20473;-54
2023/09/11 09:54:55;;;;;;;5.80;4.25;;;;;;;;;;10367743;28;20113;-49
2023/09/11 09:59:59;;;;;;;9.98;4.72;;;;;;;;;;10368844;28;20038;-49
2023/09/11 10:05:07;;;;;;;8.07;5.13;;;;;;;;;;10380512;28;20033;-50
2023/09/11 10:10:23;;;;;;;7.65;4.78;;;;;;;;;;10368269;28;20037;-50
2023/09/11 10:15:24;;;;;;;14.25;4.53;;;;;;;;;;10378435;28;20026;-48
2023/09/11 10:20:26;;;;;;;7.30;4.70;;;;;;;;;;10369078;28;20026;-49
2023/09/11 10:25:32;;;;;;;4.75;4.07;;;;;;;;;;10379924;28;20041;-52
2023/09/11 10:31:23;;;;;;;5.00;4.50;;;;;;;;;;10393704;28;20022;-51
2023/09/11 10:36:29;;;;;;;7.50;4.28;;;;;;;;;;10394421;28;20033;-51
2023/09/11 10:41:32;;;;;;;5.80;4.57;;;;;;;;;;10391523;28;20041;-49
2023/09/11 10:46:34;;;;;;;7.65;4.80;;;;;;;;;;10397040;28;20448;-48
2023/09/11 10:51:35;;;;;;;5.25;4.47;;;;;;;;;;10374405;28;20021;-50
2023/09/11 10:56:35;;;;;;;6.22;4.50;;;;;;;;;;10387002;28;20028;-49
2023/09/11 11:01:36;;;;;;;5.90;4.68;;;;;;;;;;10374118;28;20089;-50
2023/09/11 11:06:37;;;;;;;4.65;4.18;;;;;;;;;;10374582;28;20137;-49
2023/09/11 11:11:42;;;;;;;7.13;4.72;;;;;;;;;;10396507;28;20029;-49
2023/09/11 11:17:07;;;;;;;5.07;4.40;;;;;;;;;;10374149;28;20462;-49
2023/09/11 11:22:27;;;;;;;7.15;4.68;;;;;;;;;;10385305;28;20022;-50
2023/09/11 11:27:28;;;;;;;9.38;4.75;;;;;;;;;;10384733;28;20029;-50
2023/09/11 11:32:30;;;;;;;6.32;5.03;;;;;;;;;;10373619;28;20033;-50
2023/09/11 11:37:32;;;;;;;6.97;4.75;;;;;;;;;;10392094;28;20470;-50
2023/09/11 11:42:32;;;;;;;6.70;4.53;;;;;;;;;;10405817;28;20033;-48
2023/09/11 11:47:33;;;;;;;8.23;4.75;;;;;;;;;;10397382;28;20046;-54
2023/09/11 11:52:34;;;;;;;7.50;5.10;;;;;;;;;;10409243;28;20041;-49
2023/09/11 11:57:35;;;;;;;6.25;4.75;;;;;;;;;;10399411;28;20030;-48
2023/09/11 12:02:35;;;;;;;5.90;4.88;;;;;;;;;;10397142;28;20542;-59
2023/09/11 12:07:36;;;;;;;7.53;4.93;;;;;;;;;;10399496;28;20490;-52
2023/09/11 12:12:41;;;;;;;6.38;4.78;;;;;;;;;;10399046;28;20388;-53
2023/09/11 12:17:49;;;;;;;5.72;4.78;;;;;;;;;;10407711;28;20029;-49
2023/09/11 12:22:50;;;;;;;6.60;5.10;;;;;;;;;;10389220;28;20389;-49
2023/09/11 12:27:50;;;;;;;6.63;4.70;;;;;;;;;;10405161;28;20028;-49
2023/09/11 12:32:51;;;;;;;15.65;5.00;;;;;;;;;;10402906;28;20061;-55
2023/09/11 12:37:52;;;;;;;6.40;4.45;;;;;;;;;;10397085;28;20041;-48
2023/09/11 12:42:52;;;;;;;12.73;4.93;;;;;;;;;;10384795;28;20030;-49
2023/09/11 12:47:53;;;;;;;10.05;4.43;;;;;;;;;;10386857;28;20042;-50
2023/09/11 12:52:57;;;;;;;6.85;4.57;;;;;;;;;;10405343;28;20037;-51
2023/09/11 12:57:59;;;;;;;7.07;4.35;;;;;;;;;;10402720;28;20053;-49
2023/09/11 13:03:03;;;;;;;10.57;4.55;;;;;;;;;;10396680;28;20094;-50
2023/09/11 13:08:03;;;;;;;8.38;4.25;;;;;;;;;;10396655;28;20083;-49
2023/09/11 13:13:05;;;;;;;9.00;4.60;;;;;;;;;;10386172;28;20025;-57
2023/09/11 13:18:06;;;;;;;11.00;5.47;;;;;;;;;;10385268;28;20048;-56
2023/09/11 13:23:06;;;;;;;10.30;5.15;;;;;;;;;;10405458;28;20103;-49
2023/09/11 13:28:07;;;;;;;6.18;4.65;;;;;;;;;;10385640;28;20029;-50
2023/09/11 13:33:07;;;;;;;8.18;4.70;;;;;;;;;;10405683;28;20278;-60
2023/09/11 13:38:08;;;;;;;6.25;4.47;;;;;;;;;;10402578;28;20587;-57
2023/09/11 13:43:09;;;;;;;5.90;4.43;;;;;;;;;;10398770;28;20046;-58
2023/09/11 13:48:09;;;;;;;5.10;4.40;;;;;;;;;;10386726;28;20046;-48
2023/09/11 13:53:10;;;;;;;7.75;4.43;;;;;;;;;;10377422;28;20022;-50
2023/09/11 13:58:10;;;;;;;7.85;4.88;;;;;;;;;;10383524;28;20025;-53
2023/09/11 14:03:11;;;;;;;6.47;4.30;;;;;;;;;;10404178;28;20037;-50
2023/09/11 14:08:11;;;;;;;8.50;4.63;;;;;;;;;;10411324;28;20041;-48
2023/09/11 14:13:12;;;;;;;7.07;4.53;;;;;;;;;;10413109;28;20017;-49
2023/09/11 14:18:13;;;;;;;8.10;4.18;;;;;;;;;;10413974;28;20432;-51
2023/09/11 14:23:13;;;;;;;6.18;4.47;;;;;;;;;;10375856;28;20022;-49
2023/09/11 14:28:14;;;;;;;11.18;4.43;;;;;;;;;;10386195;28;20480;-49
2023/09/11 14:33:14;;;;;;;5.85;4.22;;;;;;;;;;10388560;28;20021;-56
2023/09/11 14:38:15;;;;;;;5.18;4.20;;;;;;;;;;10393608;28;20053;-49
2023/09/11 14:43:15;;;;;;;4.45;3.85;;;;;;;;;;10405621;28;20165;-49
2023/09/11 14:48:16;;;;;;;7.63;4.43;;;;;;;;;;10383336;28;20040;-52
2023/09/11 14:53:16;;;;;;;5.30;4.40;;;;;;;;;;10386849;28;20033;-49
2023/09/11 14:58:17;;;;;;;5.15;4.63;;;;;;;;;;10392035;28;20037;-49
2023/09/11 15:03:18;;;;;;;6.97;4.80;;;;;;;;;;10401509;28;20064;-50
2023/09/11 15:08:19;;;;;;;5.55;4.18;;;;;;;;;;10401846;28;20401;-50
2023/09/11 15:13:19;;;;;;;5.35;4.32;;;;;;;;;;10405429;28;20396;-48
2023/09/11 15:18:20;;;;;;;4.95;4.10;;;;;;;;;;10409458;28;20051;-53
2023/09/11 15:23:20;;;;;;;7.20;4.10;;;;;;;;;;10406098;28;20025;-49
2023/09/11 15:28:21;;;;;;;7.18;4.57;;;;;;;;;;10407441;28;20069;-48
2023/09/11 15:33:24;;;;;;;7.90;3.97;;;;;;;;;;10409798;28;20025;-50
2023/09/11 15:38:24;;;;;;;8.07;4.22;;;;;;;;;;10405810;28;20033;-48
2023/09/11 15:43:25;;;;;;;10.95;3.95;;;;;;;;;;10389563;28;20030;-48
2023/09/11 15:48:26;;;;;;;5.07;4.05;;;;;;;;;;10408172;28;20362;-49
2023/09/11 15:53:28;;;;;;;4.97;3.90;;;;;;;;;;10408853;28;20060;-48
2023/09/11 15:58:29;;;;;;;5.82;3.90;;;;;;;;;;10408964;28;20090;-48
2023/09/11 16:03:30;;;;;;;5.00;3.97;;;;;;;;;;10409309;28;20079;-49
2023/09/11 16:08:30;;;;;;;5.57;4.10;;;;;;;;;;10407761;28;20052;-49
2023/09/11 16:13:31;;;;;;;4.68;3.90;;;;;;;;;;10406014;28;20489;-50
2023/09/11 16:18:32;;;;;;;5.40;3.80;;;;;;;;;;10408160;28;20890;-48
2023/09/11 16:23:37;;;;;;;4.70;3.40;;;;;;;;;;10407465;28;20408;-49
2023/09/11 16:28:37;;;;;;;4.35;3.83;;;;;;;;;;10400196;28;20025;-49
2023/09/11 16:33:38;;;;;;;7.93;3.75;;;;;;;;;;10414375;28;20428;-49
2023/09/11 16:38:38;;;;;;;12.57;4.10;;;;;;;;;;10402517;28;20057;-53
2023/09/11 16:43:39;;;;;;;5.13;3.90;;;;;;;;;;10389806;28;20472;-48
2023/09/11 16:48:39;;;;;;;10.23;4.10;;;;;;;;;;10397818;28;20021;-46
2023/09/11 16:53:40;;;;;;;11.38;3.92;;;;;;;;;;10400062;28;20034;-48
2023/09/11 16:58:41;;;;;;;4.03;3.63;;;;;;;;;;10394466;28;20021;-47
2023/09/11 17:03:41;;;;;;;8.25;3.85;;;;;;;;;;10397101;28;20033;-47
2023/09/11 17:08:42;;;;;;;4.75;3.65;;;;;;;;;;10394040;28;20033;-47
2023/09/11 17:13:43;;;;;;;4.55;4.00;;;;;;;;;;10398324;28;20032;-47
2023/09/11 17:18:43;;;;;;;6.38;3.83;;;;;;;;;;10390224;28;20029;-61
2023/09/11 17:23:44;;;;;;;11.15;4.00;;;;;;;;;;10406018;28;20048;-48
2023/09/11 17:28:45;;;;;;;4.97;3.97;;;;;;;;;;10406648;28;20021;-58
2023/09/11 17:33:46;;;;;;;7.28;4.22;;;;;;;;;;10393152;28;20025;-52
2023/09/11 17:38:46;;;;;;;8.48;4.05;;;;;;;;;;10397759;28;20083;-48
2023/09/11 17:43:47;;;;;;;6.95;3.97;;;;;;;;;;10392095;28;20042;-47
2023/09/11 17:48:47;;;;;;;6.82;3.80;;;;;;;;;;10399480;28;20465;-47
2023/09/11 17:53:48;;;;;;;5.93;4.40;;;;;;;;;;10392217;28;20444;-48
2023/09/11 17:58:50;;;;;;;4.60;3.67;;;;;;;;;;10380080;28;20506;-48
2023/09/11 18:03:53;;;;;;;6.35;4.57;;;;;;;;;;10392074;28;20104;-47
2023/09/11 18:08:55;;;;;;;4.45;4.05;;;;;;;;;;10382175;28;20030;-47
2023/09/11 18:13:56;;;;;;;8.88;4.40;;;;;;;;;;10392410;28;20025;-47
2023/09/11 18:18:57;;;;;;;9.95;4.57;;;;;;;;;;10384214;28;20034;-47
2023/09/11 18:23:57;;;;;;;9.77;4.97;;;;;;;;;;10393561;28;20042;-47
2023/09/11 18:29:11;;;;;;;5.40;4.43;;;;;;;;;;10395341;28;20025;-46
2023/09/11 18:34:11;;;;;;;8.73;4.68;;;;;;;;;;10395190;28;20046;-47
2023/09/11 18:39:12;;;;;;;8.70;4.78;;;;;;;;;;10385441;28;20029;-47
2023/09/11 18:44:13;;;;;;;13.23;5.93;;;;;;;;;;10372056;28;20084;-47
2023/09/11 18:49:14;;;;;;;7.57;5.10;;;;;;;;;;10383906;28;20034;-47
2023/09/11 18:54:15;;;;;;;9.20;5.78;;;;;;;;;;10385824;28;20033;-47
2023/09/11 18:59:16;;;;;;;12.55;5.43;;;;;;;;;;10384843;28;20053;-47
2023/09/11 19:04:17;;;;;;;10.25;5.40;;;;;;;;;;10389973;28;20041;-48
2023/09/11 19:09:17;;;;;;;7.60;5.15;;;;;;;;;;10383439;28;20037;-48
2023/09/11 19:14:19;;;;;;;11.15;5.32;;;;;;;;;;10383623;28;20032;-48
2023/09/11 19:19:20;;;;;;;8.25;5.07;;;;;;;;;;10376919;28;20046;-47
2023/09/11 19:24:21;;;;;;;7.47;5.15;;;;;;;;;;10382087;28;20033;-49
2023/09/11 19:29:21;;;;;;;7.53;5.35;;;;;;;;;;10381191;28;20080;-48
2023/09/11 19:34:22;;;;;;;9.30;5.00;;;;;;;;;;10400012;28;20116;-47
2023/09/11 19:39:22;;;;;;;10.27;5.15;;;;;;;;;;10380628;28;20037;-52
2023/09/11 19:44:23;;;;;;;11.75;5.57;;;;;;;;;;10378479;28;20046;-47
2023/09/11 19:49:24;;;;;;;15.75;6.00;;;;;;;;;;10375576;28;20026;-46
2023/09/11 19:54:24;;;;;;;24.77;6.85;;;;;;;;;;10378884;28;20030;-49
2023/09/11 19:59:27;;;;;;;19.95;6.28;;;;;;;;;;10383922;28;20389;-50
2023/09/11 20:04:28;;;;;;;15.82;6.28;;;;;;;;;;10399239;28;20026;-57
2023/09/11 20:09:28;;;;;;;23.48;7.18;;;;;;;;;;10394906;28;20034;-47
2023/09/11 20:14:29;;;;;;;14.63;6.13;;;;;;;;;;10390414;28;20099;-48
2023/09/11 20:19:30;;;;;;;13.73;5.97;;;;;;;;;;10390623;28;20033;-51
2023/09/11 20:24:30;;;;;;;13.43;6.68;;;;;;;;;;10400300;28;20029;-51
2023/09/11 20:29:31;;;;;;;15.60;6.88;;;;;;;;;;10402923;28;20025;-50
2023/09/11 20:34:31;;;;;;;20.83;7.30;;;;;;;;;;10392546;28;20033;-51
2023/09/11 20:39:32;;;;;;;14.02;7.20;;;;;;;;;;10398580;28;20030;-53
2023/09/11 20:44:33;;;;;;;13.52;7.20;;;;;;;;;;10391824;28;20076;-53
2023/09/11 20:49:33;;;;;;;14.38;6.90;;;;;;;;;;10388564;28;20358;-51
2023/09/11 20:54:34;;;;;;;15.55;7.20;;;;;;;;;;10405093;28;20269;-51
2023/09/11 20:59:35;;;;;;;11.57;7.28;;;;;;;;;;10409602;28;20033;-50
2023/09/11 21:04:36;;;;;;;16.52;6.97;;;;;;;;;;10418576;28;20033;-50
2023/09/11 21:09:36;;;;;;;16.30;6.70;;;;;;;;;;10405419;28;20044;-50
2023/09/11 21:14:37;;;;;;;14.18;7.32;;;;;;;;;;10404244;28;20044;-48
2023/09/11 21:19:37;;;;;;;10.90;7.15;;;;;;;;;;10405900;28;20583;-48
2023/09/11 21:24:38;;;;;;;16.65;7.53;;;;;;;;;;10406644;28;20076;-49
2023/09/11 21:29:38;;;;;;;13.30;7.57;;;;;;;;;;10404783;28;20029;-59
2023/09/11 21:34:39;;;;;;;11.55;7.47;;;;;;;;;;10404700;28;20025;-60
2023/09/11 21:39:40;;;;;;;12.35;8.00;;;;;;;;;;10397210;28;20044;-49
2023/09/11 21:44:40;;;;;;;15.27;7.90;;;;;;;;;;10396329;28;20045;-53
2023/09/11 21:49:41;;;;;;;11.23;7.55;;;;;;;;;;10393283;28;20469;-48
2023/09/11 21:54:41;;;;;;;14.40;7.65;;;;;;;;;;10398127;28;20560;-49
2023/09/11 21:59:42;;;;;;;9.70;7.68;;;;;;;;;;10403615;28;20040;-48
2023/09/11 22:04:46;;;;;;;17.35;8.45;;;;;;;;;;10403507;28;20033;-49
2023/09/11 22:09:47;;;;;;;13.77;8.13;;;;;;;;;;10405438;28;20053;-59
2023/09/11 22:14:47;;;;;;;18.48;8.40;;;;;;;;;;10405865;28;20026;-56
2023/09/11 22:19:49;;;;;;;12.05;8.25;;;;;;;;;;10401946;28;20453;-49
2023/09/11 22:24:50;;;;;;;11.32;8.13;;;;;;;;;;10402217;28;20029;-59
2023/09/11 22:29:50;;;;;;;13.02;8.05;;;;;;;;;;10408543;28;20038;-48
2023/09/11 22:34:51;;;;;;;11.68;7.82;;;;;;;;;;10411088;28;20496;-49
2023/09/11 22:39:51;;;;;;;20.52;7.63;;;;;;;;;;10403961;28;20466;-50
2023/09/11 22:44:52;;;;;;;12.35;7.53;;;;;;;;;;10410966;28;20515;-49
2023/09/11 22:49:53;;;;;;;13.70;8.13;;;;;;;;;;10381794;28;20481;-50
2023/09/11 22:54:53;;;;;;;14.90;7.53;;;;;;;;;;10410381;28;20493;-50
2023/09/11 22:59:54;;;;;;;13.93;8.02;;;;;;;;;;10409097;28;20457;-51
2023/09/11 23:04:54;;;;;;;12.45;7.68;;;;;;;;;;10411020;28;20397;-50
2023/09/11 23:09:55;;;;;;;18.92;8.00;;;;;;;;;;10407388;28;20366;-48
2023/09/11 23:14:56;;;;;;;13.50;8.38;;;;;;;;;;10396052;28;20377;-51
2023/09/11 23:19:56;;;;;;;15.48;7.55;;;;;;;;;;10409530;28;20362;-49
2023/09/11 23:24:57;;;;;;;13.80;7.53;;;;;;;;;;10397535;28;20028;-49
2023/09/11 23:29:58;;;;;;;14.43;7.30;;;;;;;;;;10398763;28;20025;-49
2023/09/11 23:34:58;;;;;;;10.27;7.75;;;;;;;;;;10394180;28;20089;-49
2023/09/11 23:39:59;;;;;;;12.02;8.15;;;;;;;;;;10400689;28;20025;-53
2023/09/11 23:44:59;;;;;;;11.40;7.90;;;;;;;;;;10398842;28;20052;-49
2023/09/11 23:50:00;;;;;;;14.75;8.98;;;;;;;;;;10408792;28;20046;-49
2023/09/11 23:55:01;;;;;;;16.10;8.88;;;;;;;;;;10407459;28;20021;-49
